Time;durP1;ratioP1;P1;durP2;ratioP2;P2;SDS_P1;SDS_P2;PMS_P1;PMS_P2;Temp;Humidity;BMP_temperature;BMP_pressure;BME280_temperature;BME280_humidity;BME280_pressure;Samples;Min_cycle;Max_cycle;Signal;HPM_P1;HPM_P2
2023/12/03 00:00:50;;;;;;;21.42;3.22;;;;;;;;;;5084827;28;20484;-42
2023/12/03 00:03:17;;;;;;;23.08;3.78;;;;;;;;;;5083462;28;20434;-44
2023/12/03 00:05:44;;;;;;;15.35;3.20;;;;;;;;;;5090548;28;20421;-42
2023/12/03 00:08:11;;;;;;;17.00;3.10;;;;;;;;;;5086761;28;20390;-42
2023/12/03 00:10:38;;;;;;;33.95;3.63;;;;;;;;;;5084120;28;20739;-42
2023/12/03 00:13:05;;;;;;;15.80;2.72;;;;;;;;;;5074543;28;20889;-42
2023/12/03 00:15:32;;;;;;;13.35;2.33;;;;;;;;;;5090282;28;20390;-42
2023/12/03 00:17:59;;;;;;;18.15;2.60;;;;;;;;;;5090453;28;20887;-42
2023/12/03 00:20:26;;;;;;;28.20;3.45;;;;;;;;;;5090771;28;20478;-42
2023/12/03 00:22:53;;;;;;;27.17;3.67;;;;;;;;;;5083294;28;20392;-42
2023/12/03 00:25:20;;;;;;;24.95;3.75;;;;;;;;;;5076357;28;20469;-42
2023/12/03 00:27:48;;;;;;;22.27;3.70;;;;;;;;;;5085420;28;20386;-42
2023/12/03 00:30:15;;;;;;;30.58;3.30;;;;;;;;;;5090122;28;20826;-42
2023/12/03 00:32:42;;;;;;;25.50;3.67;;;;;;;;;;5086479;28;20425;-42
2023/12/03 00:35:11;;;;;;;34.97;5.03;;;;;;;;;;5082401;28;20757;-43
2023/12/03 00:37:38;;;;;;;15.25;3.22;;;;;;;;;;5081568;28;20494;-43
2023/12/03 00:40:05;;;;;;;34.47;3.97;;;;;;;;;;5089492;28;20888;-41
2023/12/03 00:42:32;;;;;;;24.23;3.60;;;;;;;;;;5089880;28;20747;-43
2023/12/03 00:44:59;;;;;;;26.77;4.80;;;;;;;;;;5089627;28;20914;-42
2023/12/03 00:47:26;;;;;;;30.03;11.07;;;;;;;;;;5079667;28;20905;-41
2023/12/03 00:49:53;;;;;;;32.78;8.45;;;;;;;;;;5078312;28;20881;-41
2023/12/03 00:52:20;;;;;;;18.15;5.47;;;;;;;;;;5074572;28;20800;-41
2023/12/03 00:54:47;;;;;;;26.70;4.73;;;;;;;;;;5083142;28;20399;-41
2023/12/03 00:57:14;;;;;;;16.63;3.75;;;;;;;;;;5079348;28;20447;-42
2023/12/03 00:59:43;;;;;;;17.67;4.47;;;;;;;;;;5089766;28;20394;-41
2023/12/03 01:02:10;;;;;;;12.90;3.50;;;;;;;;;;5082996;28;20861;-42
2023/12/03 01:04:37;;;;;;;15.82;4.85;;;;;;;;;;5085390;28;20451;-41
2023/12/03 01:07:04;;;;;;;14.88;5.28;;;;;;;;;;5077261;28;20427;-42
2023/12/03 01:09:31;;;;;;;11.30;3.90;;;;;;;;;;5077692;28;20394;-42
2023/12/03 01:11:58;;;;;;;12.50;3.88;;;;;;;;;;5083607;28;20920;-43
2023/12/03 01:14:25;;;;;;;13.35;4.05;;;;;;;;;;5081100;28;20402;-42
2023/12/03 01:16:52;;;;;;;16.70;4.25;;;;;;;;;;5082161;28;20506;-41
2023/12/03 01:19:19;;;;;;;14.48;3.80;;;;;;;;;;5084019;28;20413;-41
2023/12/03 01:21:46;;;;;;;20.53;4.80;;;;;;;;;;5084433;28;20399;-41
2023/12/03 01:24:13;;;;;;;19.80;4.88;;;;;;;;;;5083939;28;20525;-45
2023/12/03 01:26:40;;;;;;;13.82;4.53;;;;;;;;;;5082863;28;20428;-41
2023/12/03 01:29:07;;;;;;;17.00;5.85;;;;;;;;;;5076963;28;20402;-42
2023/12/03 01:31:34;;;;;;;18.00;5.90;;;;;;;;;;5086513;28;20448;-41
2023/12/03 01:34:02;;;;;;;19.05;7.18;;;;;;;;;;5085118;28;20415;-42
2023/12/03 01:36:28;;;;;;;19.92;7.32;;;;;;;;;;5083767;28;20571;-42
2023/12/03 01:38:55;;;;;;;27.10;10.57;;;;;;;;;;5083221;28;20492;-41
2023/12/03 01:41:22;;;;;;;31.88;13.55;;;;;;;;;;5085910;28;20774;-42
2023/12/03 01:43:54;;;;;;;30.63;13.90;;;;;;;;;;5083266;28;20395;-39
2023/12/03 01:46:24;;;;;;;36.53;16.10;;;;;;;;;;5100278;28;20435;-39
2023/12/03 01:48:51;;;;;;;44.13;16.95;;;;;;;;;;5077553;28;20404;-47
2023/12/03 01:51:19;;;;;;;50.75;17.27;;;;;;;;;;5081921;28;20411;-42
2023/12/03 01:53:46;;;;;;;47.33;17.70;;;;;;;;;;5078211;28;20398;-42
2023/12/03 01:56:13;;;;;;;46.90;17.90;;;;;;;;;;5087927;28;20402;-42
2023/12/03 01:58:40;;;;;;;44.28;17.35;;;;;;;;;;5087954;28;20398;-45
2023/12/03 02:01:08;;;;;;;38.20;16.40;;;;;;;;;;5086915;28;20543;-42
2023/12/03 02:03:35;;;;;;;38.13;15.43;;;;;;;;;;5087993;28;20413;-42
2023/12/03 02:06:09;;;;;;;39.03;14.90;;;;;;;;;;5091734;28;20417;-43
2023/12/03 02:08:36;;;;;;;37.28;14.43;;;;;;;;;;5089602;28;20424;-42
2023/12/03 02:11:05;;;;;;;34.28;14.63;;;;;;;;;;5085111;28;20405;-42
2023/12/03 02:13:33;;;;;;;38.78;14.10;;;;;;;;;;5088065;28;20406;-42
2023/12/03 02:16:00;;;;;;;31.77;13.00;;;;;;;;;;5088139;28;20873;-42
2023/12/03 02:18:28;;;;;;;30.20;12.73;;;;;;;;;;5088581;28;20410;-42
2023/12/03 02:20:58;;;;;;;33.55;11.50;;;;;;;;;;5089681;28;20402;-42
2023/12/03 02:23:28;;;;;;;44.70;12.93;;;;;;;;;;5086611;28;20403;-41
2023/12/03 02:25:55;;;;;;;27.33;10.80;;;;;;;;;;5084531;28;20434;-42
2023/12/03 02:28:22;;;;;;;26.42;10.90;;;;;;;;;;5085733;28;20391;-42
2023/12/03 02:30:49;;;;;;;33.20;10.98;;;;;;;;;;5089940;28;20437;-41
2023/12/03 02:33:16;;;;;;;24.45;10.50;;;;;;;;;;5088069;28;20394;-41
2023/12/03 02:35:43;;;;;;;28.35;10.30;;;;;;;;;;5091349;28;20470;-41
2023/12/03 02:38:10;;;;;;;25.13;9.82;;;;;;;;;;5086685;28;20810;-42
2023/12/03 02:40:39;;;;;;;21.50;9.35;;;;;;;;;;5086595;28;20397;-41
2023/12/03 02:43:06;;;;;;;29.80;9.40;;;;;;;;;;5084982;28;20914;-41
2023/12/03 02:45:33;;;;;;;32.78;9.10;;;;;;;;;;5088595;28;20414;-41
2023/12/03 02:48:00;;;;;;;24.25;7.95;;;;;;;;;;5083637;28;20463;-41
2023/12/03 02:50:27;;;;;;;22.17;8.35;;;;;;;;;;5084665;28;20872;-41
2023/12/03 02:52:54;;;;;;;27.50;8.70;;;;;;;;;;5086651;28;20824;-42
2023/12/03 02:55:21;;;;;;;24.90;8.18;;;;;;;;;;5083697;28;20497;-41
2023/12/03 02:57:48;;;;;;;22.42;7.38;;;;;;;;;;5085127;28;20397;-44
2023/12/03 03:00:16;;;;;;;24.45;7.97;;;;;;;;;;5089895;28;20404;-42
2023/12/03 03:02:43;;;;;;;25.23;7.60;;;;;;;;;;5089653;28;20402;-42
2023/12/03 03:05:10;;;;;;;23.35;7.65;;;;;;;;;;5083821;28;20463;-41
2023/12/03 03:07:37;;;;;;;27.13;7.78;;;;;;;;;;5078667;28;20879;-42
2023/12/03 03:10:05;;;;;;;20.27;7.63;;;;;;;;;;5084995;28;20421;-41
2023/12/03 03:12:32;;;;;;;25.88;8.07;;;;;;;;;;5089301;28;20401;-41
2023/12/03 03:14:59;;;;;;;26.80;8.83;;;;;;;;;;5089221;28;20386;-46
2023/12/03 03:17:26;;;;;;;26.65;8.90;;;;;;;;;;5087458;28;20399;-44
2023/12/03 03:19:53;;;;;;;22.95;7.93;;;;;;;;;;5087940;28;20397;-46
2023/12/03 03:22:20;;;;;;;26.33;8.10;;;;;;;;;;5085980;28;20811;-43
2023/12/03 03:24:47;;;;;;;30.38;7.88;;;;;;;;;;5085772;28;20426;-40
2023/12/03 03:27:14;;;;;;;33.85;8.18;;;;;;;;;;5088929;28;20422;-41
2023/12/03 03:29:41;;;;;;;35.33;8.23;;;;;;;;;;5083817;28;20412;-49
2023/12/03 03:32:08;;;;;;;38.17;7.97;;;;;;;;;;5084848;28;20402;-44
2023/12/03 03:34:35;;;;;;;26.35;8.00;;;;;;;;;;5080551;28;20452;-40
2023/12/03 03:37:02;;;;;;;26.00;7.03;;;;;;;;;;5085365;28;20549;-43
2023/12/03 03:39:29;;;;;;;28.02;6.80;;;;;;;;;;5087540;28;20444;-45
2023/12/03 03:41:56;;;;;;;27.95;6.57;;;;;;;;;;5086966;28;20406;-48
2023/12/03 03:44:23;;;;;;;23.70;6.63;;;;;;;;;;5080863;28;20406;-52
2023/12/03 03:46:51;;;;;;;25.85;6.97;;;;;;;;;;5084577;28;20424;-44
2023/12/03 03:49:18;;;;;;;22.95;6.25;;;;;;;;;;5080653;28;20467;-41
2023/12/03 03:51:46;;;;;;;26.83;6.38;;;;;;;;;;5088754;28;20911;-44
2023/12/03 03:54:13;;;;;;;31.45;5.90;;;;;;;;;;5083111;28;20907;-42
2023/12/03 03:56:41;;;;;;;27.97;6.13;;;;;;;;;;5080869;28;20402;-43
2023/12/03 03:59:08;;;;;;;27.38;6.03;;;;;;;;;;5077385;28;20433;-41
2023/12/03 04:01:35;;;;;;;27.73;5.75;;;;;;;;;;5080348;28;20417;-43
2023/12/03 04:04:03;;;;;;;28.55;5.15;;;;;;;;;;5073771;28;20766;-43
2023/12/03 04:06:30;;;;;;;23.97;4.47;;;;;;;;;;5089895;28;20903;-43
2023/12/03 04:08:57;;;;;;;20.85;4.15;;;;;;;;;;5076642;28;20498;-41
2023/12/03 04:11:27;;;;;;;16.63;3.20;;;;;;;;;;5077350;28;20791;-40
2023/12/03 04:13:55;;;;;;;15.10;2.92;;;;;;;;;;5076171;28;20820;-41
2023/12/03 04:16:24;;;;;;;18.27;2.85;;;;;;;;;;5084029;28;20412;-43
2023/12/03 04:18:51;;;;;;;13.13;2.92;;;;;;;;;;5089544;28;20398;-45
2023/12/03 04:21:18;;;;;;;13.27;2.92;;;;;;;;;;5088761;28;20406;-43
2023/12/03 04:23:46;;;;;;;13.95;2.55;;;;;;;;;;5089133;28;20458;-42
2023/12/03 04:26:14;;;;;;;8.90;2.10;;;;;;;;;;5087112;28;20828;-43
2023/12/03 04:28:41;;;;;;;11.73;2.35;;;;;;;;;;5087900;28;20497;-42
2023/12/03 04:31:22;;;;;;;13.87;2.53;;;;;;;;;;5089475;28;20895;-45
2023/12/03 04:33:50;;;;;;;6.83;1.80;;;;;;;;;;5089596;28;20416;-40
2023/12/03 04:36:18;;;;;;;12.82;1.85;;;;;;;;;;5087059;28;20493;-42
2023/12/03 04:38:45;;;;;;;9.95;1.73;;;;;;;;;;5086483;28;20400;-43
2023/12/03 04:41:13;;;;;;;9.70;1.80;;;;;;;;;;5087687;28;20441;-48
2023/12/03 04:43:40;;;;;;;7.47;1.33;;;;;;;;;;5084665;28;20411;-43
2023/12/03 04:46:08;;;;;;;10.00;1.43;;;;;;;;;;5082695;28;20453;-42
2023/12/03 04:48:36;;;;;;;8.97;1.50;;;;;;;;;;5081732;28;20465;-38
2023/12/03 04:51:03;;;;;;;10.60;1.58;;;;;;;;;;5081438;28;20401;-46
2023/12/03 04:53:31;;;;;;;8.68;1.20;;;;;;;;;;5078206;28;20420;-41
2023/12/03 04:55:58;;;;;;;7.30;1.20;;;;;;;;;;5079116;28;20431;-42
2023/12/03 04:58:25;;;;;;;13.73;1.60;;;;;;;;;;5082906;28;21126;-43
2023/12/03 05:00:53;;;;;;;8.43;1.27;;;;;;;;;;5085511;28;20493;-45
2023/12/03 05:03:21;;;;;;;9.90;1.40;;;;;;;;;;5085652;28;20448;-43
2023/12/03 05:05:48;;;;;;;9.63;1.50;;;;;;;;;;5087194;28;20422;-47
2023/12/03 05:08:15;;;;;;;10.57;1.40;;;;;;;;;;5088457;28;20402;-43
2023/12/03 05:10:43;;;;;;;11.00;1.30;;;;;;;;;;5089225;28;20406;-43
2023/12/03 05:13:10;;;;;;;8.15;1.23;;;;;;;;;;5088060;28;20455;-41
2023/12/03 05:15:37;;;;;;;8.00;1.10;;;;;;;;;;5091707;28;20455;-42
2023/12/03 05:18:04;;;;;;;11.70;1.53;;;;;;;;;;5090276;28;20409;-42
2023/12/03 05:20:32;;;;;;;4.18;1.02;;;;;;;;;;5091172;28;20899;-42
2023/12/03 05:22:59;;;;;;;6.87;1.40;;;;;;;;;;5092219;28;20887;-45
2023/12/03 05:25:26;;;;;;;10.50;1.98;;;;;;;;;;5085760;28;20434;-44
2023/12/03 05:27:53;;;;;;;12.40;1.92;;;;;;;;;;5090353;28;20402;-44
2023/12/03 05:30:20;;;;;;;7.38;2.00;;;;;;;;;;5091524;28;20458;-44
2023/12/03 05:32:48;;;;;;;8.23;2.42;;;;;;;;;;5087753;28;20398;-43
2023/12/03 05:35:15;;;;;;;9.80;3.23;;;;;;;;;;5089829;28;20871;-44
2023/12/03 05:37:42;;;;;;;10.33;3.40;;;;;;;;;;5088602;28;20806;-43
2023/12/03 05:40:09;;;;;;;7.70;3.03;;;;;;;;;;5085781;28;20416;-43
2023/12/03 05:42:39;;;;;;;9.00;2.83;;;;;;;;;;5093157;28;20424;-45
2023/12/03 05:45:09;;;;;;;5.68;2.60;;;;;;;;;;5091221;28;20420;-43
2023/12/03 05:47:39;;;;;;;9.73;3.10;;;;;;;;;;5092635;28;20455;-43
2023/12/03 05:50:10;;;;;;;10.63;2.85;;;;;;;;;;5089112;28;20409;-43
2023/12/03 05:52:40;;;;;;;9.87;3.67;;;;;;;;;;5091404;28;20492;-43
2023/12/03 05:55:11;;;;;;;11.20;3.20;;;;;;;;;;5089304;28;21028;-43
2023/12/03 06:00:29;;;;;;;10.40;3.85;;;;;;;;;;5088935;28;20810;-44
2023/12/03 06:03:02;;;;;;;11.55;3.50;;;;;;;;;;5087710;28;20482;-43
2023/12/03 06:05:33;;;;;;;12.00;3.88;;;;;;;;;;5089400;28;20417;-43
2023/12/03 06:08:02;;;;;;;9.50;3.60;;;;;;;;;;5091649;28;20417;-44
2023/12/03 06:10:32;;;;;;;8.37;3.57;;;;;;;;;;5087723;28;20410;-43
2023/12/03 06:13:02;;;;;;;11.20;3.80;;;;;;;;;;5090303;28;20513;-43
2023/12/03 06:15:32;;;;;;;12.60;3.25;;;;;;;;;;5092143;28;20409;-44
2023/12/03 06:18:02;;;;;;;10.75;3.10;;;;;;;;;;5092111;28;20898;-43
2023/12/03 06:20:33;;;;;;;8.95;3.25;;;;;;;;;;5085749;28;20875;-43
2023/12/03 06:23:02;;;;;;;9.02;3.28;;;;;;;;;;5089533;28;20499;-43
2023/12/03 06:25:32;;;;;;;8.10;3.08;;;;;;;;;;5090635;28;20429;-47
2023/12/03 06:28:07;;;;;;;10.60;2.97;;;;;;;;;;5090351;28;20425;-43
2023/12/03 06:30:38;;;;;;;8.48;3.05;;;;;;;;;;5084181;28;20481;-43
2023/12/03 06:33:08;;;;;;;10.43;3.20;;;;;;;;;;5091802;28;20413;-44
2023/12/03 06:35:38;;;;;;;10.85;2.85;;;;;;;;;;5090052;28;20528;-44
2023/12/03 06:38:08;;;;;;;10.07;2.85;;;;;;;;;;5081976;28;20772;-44
2023/12/03 06:40:38;;;;;;;12.10;3.05;;;;;;;;;;5084646;28;21203;-44
2023/12/03 06:43:08;;;;;;;11.05;2.90;;;;;;;;;;5090922;28;20465;-44
2023/12/03 06:45:38;;;;;;;9.73;2.88;;;;;;;;;;5084845;28;20818;-43
2023/12/03 06:48:08;;;;;;;6.70;2.33;;;;;;;;;;5088417;28;20414;-43
2023/12/03 06:50:39;;;;;;;7.45;2.67;;;;;;;;;;5084899;28;20441;-43
2023/12/03 06:53:09;;;;;;;8.10;2.40;;;;;;;;;;5091386;28;20498;-43
2023/12/03 06:55:39;;;;;;;6.40;2.20;;;;;;;;;;5089762;28;20409;-43
2023/12/03 06:58:09;;;;;;;10.32;2.17;;;;;;;;;;5088165;28;20397;-44
2023/12/03 07:00:37;;;;;;;8.15;2.10;;;;;;;;;;5085067;28;20418;-43
2023/12/03 07:03:04;;;;;;;9.65;2.03;;;;;;;;;;5090544;28;20927;-43
2023/12/03 07:05:31;;;;;;;6.07;1.90;;;;;;;;;;5088090;28;20422;-44
2023/12/03 07:07:58;;;;;;;8.10;1.63;;;;;;;;;;5091438;28;20485;-43
2023/12/03 07:10:25;;;;;;;9.20;1.42;;;;;;;;;;5091144;28;20404;-43
2023/12/03 07:12:52;;;;;;;9.07;1.80;;;;;;;;;;5082293;28;20415;-43
2023/12/03 07:15:20;;;;;;;9.85;1.80;;;;;;;;;;5091510;28;20406;-45
2023/12/03 07:17:47;;;;;;;5.43;1.30;;;;;;;;;;5090532;28;20405;-43
2023/12/03 07:20:14;;;;;;;7.20;1.50;;;;;;;;;;5084437;28;20400;-43
2023/12/03 07:22:41;;;;;;;7.07;1.40;;;;;;;;;;5091459;28;20401;-43
2023/12/03 07:25:08;;;;;;;8.95;1.42;;;;;;;;;;5090866;28;20390;-43
2023/12/03 07:27:35;;;;;;;8.13;1.30;;;;;;;;;;5090490;28;20891;-44
2023/12/03 07:30:02;;;;;;;7.05;1.23;;;;;;;;;;5090834;28;20398;-43
2023/12/03 07:32:29;;;;;;;5.80;1.00;;;;;;;;;;5088127;28;20417;-43
2023/12/03 07:34:57;;;;;;;4.57;0.90;;;;;;;;;;5090828;28;20413;-45
2023/12/03 07:37:23;;;;;;;4.25;1.00;;;;;;;;;;5090622;28;20540;-43
2023/12/03 07:39:50;;;;;;;5.05;1.00;;;;;;;;;;5090563;28;20421;-43
2023/12/03 07:42:18;;;;;;;3.25;0.80;;;;;;;;;;5088266;28;20455;-43
2023/12/03 07:44:46;;;;;;;4.83;0.80;;;;;;;;;;5089391;28;20393;-44
2023/12/03 07:47:13;;;;;;;5.28;0.77;;;;;;;;;;5086606;28;20502;-44
2023/12/03 07:49:40;;;;;;;4.90;0.80;;;;;;;;;;5088492;28;20398;-44
2023/12/03 07:52:07;;;;;;;6.60;0.68;;;;;;;;;;5088307;28;20455;-43
2023/12/03 07:54:34;;;;;;;3.80;0.70;;;;;;;;;;5089462;28;20409;-43
2023/12/03 07:57:02;;;;;;;4.70;0.70;;;;;;;;;;5089113;28;20408;-44
2023/12/03 07:59:29;;;;;;;4.40;0.60;;;;;;;;;;5090211;28;20513;-43
2023/12/03 08:01:58;;;;;;;5.43;0.70;;;;;;;;;;5085789;28;20401;-43
2023/12/03 08:04:25;;;;;;;3.65;0.70;;;;;;;;;;5089991;28;20990;-43
2023/12/03 08:06:52;;;;;;;2.83;0.60;;;;;;;;;;5090538;28;20421;-44
2023/12/03 08:09:19;;;;;;;5.68;0.77;;;;;;;;;;5087862;28;20433;-43
2023/12/03 08:11:46;;;;;;;3.53;0.63;;;;;;;;;;5083931;28;20398;-43
2023/12/03 08:14:13;;;;;;;4.47;0.60;;;;;;;;;;5088227;28;20767;-43
2023/12/03 08:16:40;;;;;;;7.80;0.93;;;;;;;;;;5080260;28;20402;-43
2023/12/03 08:19:07;;;;;;;6.70;0.90;;;;;;;;;;5087525;28;20403;-44
2023/12/03 08:21:36;;;;;;;3.80;0.70;;;;;;;;;;5089204;28;21065;-43
2023/12/03 08:24:03;;;;;;;5.50;0.63;;;;;;;;;;5088923;28;20414;-44
2023/12/03 08:26:30;;;;;;;5.18;0.80;;;;;;;;;;5085649;28;20468;-43
2023/12/03 08:28:57;;;;;;;5.38;0.80;;;;;;;;;;5087123;28;20402;-43
2023/12/03 08:31:24;;;;;;;6.22;0.80;;;;;;;;;;5089723;28;20398;-43
2023/12/03 08:33:52;;;;;;;7.25;0.75;;;;;;;;;;5090025;28;20879;-44
2023/12/03 08:36:19;;;;;;;5.85;0.73;;;;;;;;;;5087134;28;20402;-43
2023/12/03 08:38:48;;;;;;;7.40;0.80;;;;;;;;;;5089727;28;20440;-44
2023/12/03 08:41:15;;;;;;;7.55;1.02;;;;;;;;;;5088141;28;20497;-43
2023/12/03 08:43:42;;;;;;;9.27;1.10;;;;;;;;;;5090103;28;20451;-43
2023/12/03 08:46:09;;;;;;;16.98;1.75;;;;;;;;;;5085667;28;20496;-44
2023/12/03 08:48:37;;;;;;;18.40;1.70;;;;;;;;;;5089326;28;20416;-43
2023/12/03 08:51:04;;;;;;;14.07;1.70;;;;;;;;;;5087681;28;20461;-44
2023/12/03 08:53:31;;;;;;;12.05;1.20;;;;;;;;;;5089604;28;20408;-43
2023/12/03 08:55:59;;;;;;;11.02;1.30;;;;;;;;;;5089581;28;20424;-43
2023/12/03 08:58:27;;;;;;;11.13;1.45;;;;;;;;;;5089485;28;20406;-43
2023/12/03 09:00:54;;;;;;;10.30;1.15;;;;;;;;;;5088589;28;20917;-43
2023/12/03 09:03:21;;;;;;;14.70;1.30;;;;;;;;;;5088422;28;20896;-43
2023/12/03 09:05:48;;;;;;;7.40;0.95;;;;;;;;;;5089608;28;20486;-43
2023/12/03 09:08:15;;;;;;;8.38;0.98;;;;;;;;;;5085494;28;20401;-44
2023/12/03 09:10:42;;;;;;;6.60;1.00;;;;;;;;;;5083907;28;20421;-43
2023/12/03 09:13:09;;;;;;;7.43;0.70;;;;;;;;;;5089390;28;20413;-43
2023/12/03 09:15:36;;;;;;;7.40;0.98;;;;;;;;;;5088959;28;20393;-43
2023/12/03 09:18:03;;;;;;;5.15;1.00;;;;;;;;;;5083134;28;20402;-44
2023/12/03 09:20:30;;;;;;;6.43;0.90;;;;;;;;;;5084066;28;20443;-43
2023/12/03 09:22:57;;;;;;;3.60;0.70;;;;;;;;;;5089682;28;20405;-43
2023/12/03 09:25:24;;;;;;;5.25;0.70;;;;;;;;;;5089139;28;20458;-44
2023/12/03 09:27:52;;;;;;;4.40;0.77;;;;;;;;;;5089164;28;20431;-43
2023/12/03 09:30:19;;;;;;;8.45;0.90;;;;;;;;;;5083926;28;20401;-43
2023/12/03 09:32:47;;;;;;;6.27;0.80;;;;;;;;;;5089255;28;20402;-44
2023/12/03 09:35:14;;;;;;;7.53;0.80;;;;;;;;;;5089228;28;20394;-43
2023/12/03 09:37:41;;;;;;;5.80;0.70;;;;;;;;;;5075730;28;20407;-43
2023/12/03 09:40:08;;;;;;;3.80;0.70;;;;;;;;;;5086238;28;20914;-44
2023/12/03 09:42:39;;;;;;;6.60;0.80;;;;;;;;;;5089259;28;20417;-44
2023/12/03 09:45:09;;;;;;;5.53;0.80;;;;;;;;;;5086003;28;20455;-44
2023/12/03 09:47:36;;;;;;;3.67;0.80;;;;;;;;;;5084272;28;20418;-44
2023/12/03 09:50:04;;;;;;;5.57;0.75;;;;;;;;;;5085476;28;20410;-45
2023/12/03 09:52:34;;;;;;;2.83;0.63;;;;;;;;;;5088781;28;20406;-43
2023/12/03 09:55:01;;;;;;;4.47;0.82;;;;;;;;;;5088002;28;20402;-43
2023/12/03 09:57:29;;;;;;;6.07;0.80;;;;;;;;;;5088535;28;20479;-43
2023/12/03 10:00:01;;;;;;;6.57;0.70;;;;;;;;;;5087002;28;20489;-44
2023/12/03 10:02:29;;;;;;;4.03;0.60;;;;;;;;;;5090648;28;20404;-44
2023/12/03 10:04:57;;;;;;;4.65;0.65;;;;;;;;;;5088861;28;20452;-43
2023/12/03 10:07:26;;;;;;;5.32;0.75;;;;;;;;;;5090773;28;20429;-43
2023/12/03 10:09:54;;;;;;;7.97;0.75;;;;;;;;;;5088391;28;20442;-43
2023/12/03 10:12:26;;;;;;;8.20;1.10;;;;;;;;;;5088780;28;20512;-43
2023/12/03 10:14:54;;;;;;;10.80;0.82;;;;;;;;;;5089359;28;20903;-43
2023/12/03 10:17:23;;;;;;;5.43;0.70;;;;;;;;;;5082914;28;21128;-43
2023/12/03 10:19:53;;;;;;;4.00;0.55;;;;;;;;;;5091825;28;20401;-44
2023/12/03 10:22:41;;;;;;;4.18;0.40;;;;;;;;;;5085498;28;20932;-43
2023/12/03 10:25:10;;;;;;;8.20;0.63;;;;;;;;;;5086945;28;20405;-43
2023/12/03 10:27:37;;;;;;;4.17;0.50;;;;;;;;;;5091191;28;20520;-43
2023/12/03 10:30:06;;;;;;;5.93;0.63;;;;;;;;;;5084592;28;20890;-44
2023/12/03 10:32:36;;;;;;;3.78;0.65;;;;;;;;;;5086654;28;20451;-43
2023/12/03 10:35:04;;;;;;;4.80;0.70;;;;;;;;;;5090500;28;20410;-44
2023/12/03 10:37:32;;;;;;;1.53;0.37;;;;;;;;;;5084141;28;20810;-43
2023/12/03 10:40:00;;;;;;;2.28;0.50;;;;;;;;;;5086025;28;20410;-43
2023/12/03 10:42:29;;;;;;;2.33;0.50;;;;;;;;;;5084077;28;20463;-43
2023/12/03 10:44:55;;;;;;;3.72;0.43;;;;;;;;;;5089812;28;20414;-43
2023/12/03 10:47:23;;;;;;;1.90;0.50;;;;;;;;;;5088943;28;20788;-43
2023/12/03 10:49:50;;;;;;;2.00;0.50;;;;;;;;;;5088327;28;21005;-43
2023/12/03 10:52:18;;;;;;;3.35;0.47;;;;;;;;;;5089354;28;20406;-43
2023/12/03 10:54:45;;;;;;;2.40;0.50;;;;;;;;;;5087971;28;20398;-43
2023/12/03 10:57:12;;;;;;;1.33;0.30;;;;;;;;;;5089525;28;20412;-45
2023/12/03 10:59:41;;;;;;;4.50;0.40;;;;;;;;;;5083491;28;20402;-43
2023/12/03 11:02:11;;;;;;;3.17;0.40;;;;;;;;;;5085733;28;20793;-43
2023/12/03 11:04:48;;;;;;;3.10;0.20;;;;;;;;;;5089983;28;20425;-43
2023/12/03 11:07:22;;;;;;;3.55;0.40;;;;;;;;;;5090390;28;20409;-43
2023/12/03 11:09:50;;;;;;;2.38;0.30;;;;;;;;;;5089303;28;20407;-43
2023/12/03 11:12:18;;;;;;;3.05;0.35;;;;;;;;;;5084340;28;20469;-44
2023/12/03 11:14:46;;;;;;;7.10;0.82;;;;;;;;;;5085319;28;20472;-43
2023/12/03 11:17:31;;;;;;;4.20;0.67;;;;;;;;;;5086680;28;20413;-43
2023/12/03 11:20:08;;;;;;;3.80;0.40;;;;;;;;;;5086923;28;20402;-43
2023/12/03 11:22:39;;;;;;;4.13;0.53;;;;;;;;;;5081821;28;20401;-43
2023/12/03 11:25:28;;;;;;;3.90;0.43;;;;;;;;;;5083408;28;20756;-43
2023/12/03 11:27:55;;;;;;;1.75;0.35;;;;;;;;;;5088930;28;20908;-42
2023/12/03 11:30:39;;;;;;;2.22;0.32;;;;;;;;;;5088498;28;20832;-42
2023/12/03 11:33:08;;;;;;;2.47;0.40;;;;;;;;;;5087527;28;20428;-43
2023/12/03 11:35:35;;;;;;;3.15;0.40;;;;;;;;;;5086687;28;20435;-41
2023/12/03 11:38:02;;;;;;;2.97;0.35;;;;;;;;;;5087472;28;20482;-43
2023/12/03 11:40:36;;;;;;;3.85;0.40;;;;;;;;;;5086670;28;20413;-43
2023/12/03 11:43:06;;;;;;;2.25;0.30;;;;;;;;;;5088585;28;20402;-43
2023/12/03 11:45:33;;;;;;;1.23;0.20;;;;;;;;;;5089195;28;20451;-43
2023/12/03 11:48:04;;;;;;;1.90;0.40;;;;;;;;;;5088922;28;20423;-44
2023/12/03 11:50:31;;;;;;;2.58;0.40;;;;;;;;;;5086992;28;20397;-44
2023/12/03 11:52:58;;;;;;;2.88;0.50;;;;;;;;;;5087861;28;20402;-44
2023/12/03 11:55:29;;;;;;;3.83;0.60;;;;;;;;;;5084427;28;20750;-44
2023/12/03 11:57:56;;;;;;;2.78;0.55;;;;;;;;;;5084001;28;20560;-44
2023/12/03 12:00:24;;;;;;;1.75;0.38;;;;;;;;;;5085885;28;21320;-45
2023/12/03 12:02:52;;;;;;;5.60;0.50;;;;;;;;;;5085221;28;20399;-44
2023/12/03 12:05:19;;;;;;;3.50;0.40;;;;;;;;;;5090029;28;20878;-44
2023/12/03 12:08:02;;;;;;;2.30;0.30;;;;;;;;;;5082669;28;20405;-44
2023/12/03 12:10:31;;;;;;;9.48;0.50;;;;;;;;;;5082608;28;20407;-40
2023/12/03 12:12:59;;;;;;;16.90;0.75;;;;;;;;;;5080998;28;20442;-46
2023/12/03 12:15:26;;;;;;;15.10;0.93;;;;;;;;;;5081128;28;20393;-40
2023/12/03 12:17:53;;;;;;;10.90;0.70;;;;;;;;;;5081475;28;22402;-38
2023/12/03 12:20:27;;;;;;;22.88;1.10;;;;;;;;;;5087062;28;20401;-43
2023/12/03 12:22:54;;;;;;;11.25;0.80;;;;;;;;;;5086670;28;20398;-40
2023/12/03 12:25:22;;;;;;;9.55;0.68;;;;;;;;;;5084661;28;20907;-43
2023/12/03 12:27:49;;;;;;;7.93;0.70;;;;;;;;;;5085811;28;20402;-42
2023/12/03 12:30:20;;;;;;;14.65;0.90;;;;;;;;;;5081711;28;20887;-42
2023/12/03 12:32:51;;;;;;;9.98;0.77;;;;;;;;;;5086948;28;20932;-43
2023/12/03 12:35:25;;;;;;;14.30;0.80;;;;;;;;;;5079547;28;20872;-40
2023/12/03 12:38:02;;;;;;;17.57;0.93;;;;;;;;;;5088898;28;20390;-43
2023/12/03 12:40:30;;;;;;;15.95;1.10;;;;;;;;;;5085643;28;20386;-53
2023/12/03 12:43:07;;;;;;;12.18;0.95;;;;;;;;;;5085978;28;20390;-50
2023/12/03 12:45:34;;;;;;;8.95;0.70;;;;;;;;;;5080181;28;20450;-45
2023/12/03 12:48:02;;;;;;;17.77;0.90;;;;;;;;;;5079602;28;20410;-45
2023/12/03 12:50:39;;;;;;;5.60;0.60;;;;;;;;;;5086555;28;20405;-45
2023/12/03 12:53:08;;;;;;;6.97;0.77;;;;;;;;;;5087315;28;20401;-51
2023/12/03 12:55:37;;;;;;;12.57;0.70;;;;;;;;;;5083675;28;20479;-48
2023/12/03 12:58:05;;;;;;;11.32;0.75;;;;;;;;;;5089521;28;20455;-46
2023/12/03 13:00:35;;;;;;;14.27;0.80;;;;;;;;;;5088195;28;20392;-48
2023/12/03 13:03:02;;;;;;;7.13;0.87;;;;;;;;;;5084296;28;20394;-51
2023/12/03 13:05:31;;;;;;;9.50;0.75;;;;;;;;;;5086915;28;20390;-47
2023/12/03 13:08:00;;;;;;;11.65;0.90;;;;;;;;;;5088837;28;20941;-48
2023/12/03 13:10:28;;;;;;;10.30;0.90;;;;;;;;;;5078781;28;20406;-47
2023/12/03 13:12:56;;;;;;;9.57;1.00;;;;;;;;;;5080986;28;20405;-46
2023/12/03 13:15:24;;;;;;;10.57;1.00;;;;;;;;;;5076205;28;20438;-49
2023/12/03 13:17:59;;;;;;;9.23;1.00;;;;;;;;;;5078846;28;20474;-48
2023/12/03 13:20:30;;;;;;;8.40;0.90;;;;;;;;;;5085697;28;20394;-47
2023/12/03 13:23:00;;;;;;;8.60;1.03;;;;;;;;;;5083360;28;20408;-46
2023/12/03 13:25:28;;;;;;;10.40;0.82;;;;;;;;;;5079616;28;20409;-45
2023/12/03 13:27:57;;;;;;;7.07;0.80;;;;;;;;;;5084704;28;20449;-58
2023/12/03 13:30:24;;;;;;;14.25;1.10;;;;;;;;;;5082013;28;20397;-46
2023/12/03 13:32:52;;;;;;;11.63;1.20;;;;;;;;;;5086070;28;20492;-45
2023/12/03 13:35:20;;;;;;;17.23;1.40;;;;;;;;;;5086380;28;20398;-51
2023/12/03 13:37:48;;;;;;;23.17;2.33;;;;;;;;;;5088434;28;20401;-59
2023/12/03 13:40:15;;;;;;;9.88;2.10;;;;;;;;;;5090256;28;20426;-50
2023/12/03 13:42:51;;;;;;;13.32;1.90;;;;;;;;;;5085202;28;20481;-43
2023/12/03 13:45:19;;;;;;;10.30;1.50;;;;;;;;;;5089275;28;20397;-45
2023/12/03 13:47:47;;;;;;;12.02;1.42;;;;;;;;;;5091426;28;20458;-48
2023/12/03 13:50:15;;;;;;;7.68;1.33;;;;;;;;;;5084817;28;20405;-46
2023/12/03 13:52:44;;;;;;;8.27;1.17;;;;;;;;;;5083864;28;20425;-45
2023/12/03 13:55:13;;;;;;;9.57;1.20;;;;;;;;;;5081867;28;20419;-50
2023/12/03 13:57:41;;;;;;;10.02;1.10;;;;;;;;;;5087632;28;20386;-49
2023/12/03 14:00:09;;;;;;;12.55;1.50;;;;;;;;;;5087550;28;20398;-50
2023/12/03 14:02:37;;;;;;;14.00;1.48;;;;;;;;;;5080575;28;20394;-48
2023/12/03 14:05:05;;;;;;;13.65;1.50;;;;;;;;;;5087849;28;20406;-57
2023/12/03 14:07:32;;;;;;;9.43;1.20;;;;;;;;;;5087243;28;20508;-51
2023/12/03 14:10:00;;;;;;;13.88;1.45;;;;;;;;;;5088093;28;20398;-52
2023/12/03 14:12:29;;;;;;;11.10;1.30;;;;;;;;;;5088904;28;20884;-49
2023/12/03 14:14:56;;;;;;;12.32;1.67;;;;;;;;;;5084682;28;20837;-49
2023/12/03 14:17:26;;;;;;;10.13;1.92;;;;;;;;;;5087558;28;20473;-51
2023/12/03 14:19:56;;;;;;;17.63;2.80;;;;;;;;;;5086852;28;20767;-53
2023/12/03 14:22:24;;;;;;;23.90;3.30;;;;;;;;;;5081453;28;20428;-57
2023/12/03 14:24:52;;;;;;;22.60;3.77;;;;;;;;;;5082444;28;20442;-53
2023/12/03 14:27:20;;;;;;;20.35;3.45;;;;;;;;;;5082639;28;20793;-61
2023/12/03 14:29:49;;;;;;;21.58;3.08;;;;;;;;;;5084311;28;20397;-52
2023/12/03 14:32:17;;;;;;;22.02;3.78;;;;;;;;;;5084360;28;20426;-59
2023/12/03 14:34:46;;;;;;;22.65;3.72;;;;;;;;;;5089049;28;21104;-54
2023/12/03 14:37:14;;;;;;;24.90;4.00;;;;;;;;;;5092106;28;20382;-54
2023/12/03 14:39:42;;;;;;;12.07;3.33;;;;;;;;;;5089610;28;20400;-58
2023/12/03 14:42:09;;;;;;;8.60;1.90;;;;;;;;;;5089417;28;20428;-56
2023/12/03 14:44:38;;;;;;;10.10;2.35;;;;;;;;;;5085588;28;20457;-56